sensor_id;sensor_type;location;lat;lon;timestamp;pressure;altitude;pressure_sealevel;temperature;humidity
85082;BME280;75424;50.762;7.178;2024-01-30T00:00:20;102152.00;;;3.49;97.84
85082;BME280;75424;50.762;7.178;2024-01-30T00:02:46;102155.44;;;3.42;97.69
85082;BME280;75424;50.762;7.178;2024-01-30T00:05:11;102149.34;;;3.43;98.05
85082;BME280;75424;50.762;7.178;2024-01-30T00:07:37;102141.44;;;3.43;98.26
85082;BME280;75424;50.762;7.178;2024-01-30T00:10:02;102147.59;;;3.47;98.79
85082;BME280;75424;50.762;7.178;2024-01-30T00:12:28;102155.53;;;3.50;97.79
85082;BME280;75424;50.762;7.178;2024-01-30T00:14:53;102152.94;;;3.54;99.10
85082;BME280;75424;50.762;7.178;2024-01-30T00:17:19;102144.19;;;3.57;99.03
85082;BME280;75424;50.762;7.178;2024-01-30T00:19:46;102150.28;;;3.51;97.63
85082;BME280;75424;50.762;7.178;2024-01-30T00:22:11;102145.91;;;3.53;98.06
85082;BME280;75424;50.762;7.178;2024-01-30T00:24:37;102139.78;;;3.53;99.00
85082;BME280;75424;50.762;7.178;2024-01-30T00:27:02;102142.34;;;3.47;98.40
85082;BME280;75424;50.762;7.178;2024-01-30T00:29:27;102140.56;;;3.43;98.69
85082;BME280;75424;50.762;7.178;2024-01-30T00:31:56;102138.88;;;3.51;98.27
85082;BME280;75424;50.762;7.178;2024-01-30T00:34:21;102130.13;;;3.49;99.07
85082;BME280;75424;50.762;7.178;2024-01-30T00:36:47;102138.91;;;3.54;98.48
85082;BME280;75424;50.762;7.178;2024-01-30T00:39:12;102140.63;;;3.52;98.27
85082;BME280;75424;50.762;7.178;2024-01-30T00:41:37;102137.06;;;3.44;98.49
85082;BME280;75424;50.762;7.178;2024-01-30T00:44:03;102131.78;;;3.42;97.82
85082;BME280;75424;50.762;7.178;2024-01-30T00:46:28;102132.72;;;3.46;98.39
85082;BME280;75424;50.762;7.178;2024-01-30T00:48:54;102126.59;;;3.47;98.99
85082;BME280;75424;50.762;7.178;2024-01-30T00:51:19;102123.97;;;3.48;98.71
85082;BME280;75424;50.762;7.178;2024-01-30T00:53:45;102121.41;;;3.53;98.92
85082;BME280;75424;50.762;7.178;2024-01-30T00:56:10;102128.38;;;3.51;98.73
85082;BME280;75424;50.762;7.178;2024-01-30T00:58:35;102119.59;;;3.47;97.91
85082;BME280;75424;50.762;7.178;2024-01-30T01:01:01;102111.72;;;3.47;98.43
85082;BME280;75424;50.762;7.178;2024-01-30T01:03:26;102116.97;;;3.52;99.09
85082;BME280;75424;50.762;7.178;2024-01-30T01:05:51;102117.00;;;3.55;99.09
85082;BME280;75424;50.762;7.178;2024-01-30T01:08:17;102124.03;;;3.54;99.19
85082;BME280;75424;50.762;7.178;2024-01-30T01:10:43;102125.78;;;3.55;98.49
85082;BME280;75424;50.762;7.178;2024-01-30T01:13:08;102116.16;;;3.54;98.11
85082;BME280;75424;50.762;7.178;2024-01-30T01:15:34;102120.50;;;3.52;97.93
85082;BME280;75424;50.762;7.178;2024-01-30T01:18:00;102114.38;;;3.53;98.86
85082;BME280;75424;50.762;7.178;2024-01-30T01:20:25;102123.16;;;3.54;99.14
85082;BME280;75424;50.762;7.178;2024-01-30T01:22:50;102125.75;;;3.51;98.72
85082;BME280;75424;50.762;7.178;2024-01-30T01:25:17;102116.94;;;3.44;99.50
85082;BME280;75424;50.762;7.178;2024-01-30T01:27:43;102123.94;;;3.45;99.56
85082;BME280;75424;50.762;7.178;2024-01-30T01:30:10;102122.16;;;3.43;99.48
85082;BME280;75424;50.762;7.178;2024-01-30T01:32:36;102128.28;;;3.40;99.12
85082;BME280;75424;50.762;7.178;2024-01-30T01:35:02;102118.66;;;3.42;98.38
85082;BME280;75424;50.762;7.178;2024-01-30T01:37:27;102116.03;;;3.44;98.70
85082;BME280;75424;50.762;7.178;2024-01-30T01:39:53;102128.31;;;3.42;99.45
85082;BME280;75424;50.762;7.178;2024-01-30T01:42:18;102120.38;;;3.39;99.29
85082;BME280;75424;50.762;7.178;2024-01-30T01:44:43;102120.41;;;3.40;98.68
85082;BME280;75424;50.762;7.178;2024-01-30T01:47:08;102111.66;;;3.41;99.19
85082;BME280;75424;50.762;7.178;2024-01-30T01:49:34;102116.00;;;3.41;99.27
85082;BME280;75424;50.762;7.178;2024-01-30T01:52:00;102118.66;;;3.44;99.55
85082;BME280;75424;50.762;7.178;2024-01-30T01:54:26;102111.72;;;3.52;98.99
85082;BME280;75424;50.762;7.178;2024-01-30T01:56:53;102116.13;;;3.53;99.49
85082;BME280;75424;50.762;7.178;2024-01-30T01:59:19;102110.94;;;3.60;99.62
85082;BME280;75424;50.762;7.178;2024-01-30T02:01:46;102105.66;;;3.59;99.83
85082;BME280;75424;50.762;7.178;2024-01-30T02:04:14;102110.94;;;3.62;99.25
85082;BME280;75424;50.762;7.178;2024-01-30T02:06:39;102112.69;;;3.61;98.55
85082;BME280;75424;50.762;7.178;2024-01-30T02:09:05;102116.13;;;3.56;98.94
85082;BME280;75424;50.762;7.178;2024-01-30T02:11:30;102099.53;;;3.57;99.55
85082;BME280;75424;50.762;7.178;2024-01-30T02:13:56;102103.94;;;3.61;99.40
85082;BME280;75424;50.762;7.178;2024-01-30T02:16:21;102107.50;;;3.69;99.03
85082;BME280;75424;50.762;7.178;2024-01-30T02:18:46;102105.81;;;3.77;99.73
85082;BME280;75424;50.762;7.178;2024-01-30T02:21:15;102105.88;;;3.83;100.00
85082;BME280;75424;50.762;7.178;2024-01-30T02:23:41;102094.47;;;3.84;99.43
85082;BME280;75424;50.762;7.178;2024-01-30T02:26:08;102098.00;;;3.87;99.17
85082;BME280;75424;50.762;7.178;2024-01-30T02:28:33;102101.53;;;3.89;99.84
85082;BME280;75424;50.762;7.178;2024-01-30T02:30:58;102100.66;;;3.90;99.00
85082;BME280;75424;50.762;7.178;2024-01-30T02:33:23;102096.25;;;3.88;98.72
85082;BME280;75424;50.762;7.178;2024-01-30T02:35:49;102099.78;;;3.88;98.60
85082;BME280;75424;50.762;7.178;2024-01-30T02:38:15;102092.72;;;3.87;98.64
85082;BME280;75424;50.762;7.178;2024-01-30T02:40:41;102088.28;;;3.80;99.67
85082;BME280;75424;50.762;7.178;2024-01-30T02:43:06;102090.91;;;3.74;99.01
85082;BME280;75424;50.762;7.178;2024-01-30T02:45:31;102097.91;;;3.74;99.29
85082;BME280;75424;50.762;7.178;2024-01-30T02:47:57;102096.13;;;3.71;98.94
85082;BME280;75424;50.762;7.178;2024-01-30T02:50:22;102094.41;;;3.73;98.58
85082;BME280;75424;50.762;7.178;2024-01-30T02:52:47;102099.66;;;3.72;99.06
85082;BME280;75424;50.762;7.178;2024-01-30T02:55:13;102092.63;;;3.74;98.60
85082;BME280;75424;50.762;7.178;2024-01-30T02:57:39;102089.13;;;3.75;98.10
85082;BME280;75424;50.762;7.178;2024-01-30T03:00:05;102087.41;;;3.77;99.23
85082;BME280;75424;50.762;7.178;2024-01-30T03:02:32;102086.53;;;3.73;98.83
85082;BME280;75424;50.762;7.178;2024-01-30T03:04:58;102079.47;;;3.69;98.37
85082;BME280;75424;50.762;7.178;2024-01-30T03:07:23;102084.72;;;3.68;98.24
85082;BME280;75424;50.762;7.178;2024-01-30T03:09:49;102083.81;;;3.66;98.30
85082;BME280;75424;50.762;7.178;2024-01-30T03:12:14;102081.31;;;3.81;99.17
85082;BME280;75424;50.762;7.178;2024-01-30T03:14:39;102090.09;;;3.83;98.24
85082;BME280;75424;50.762;7.178;2024-01-30T03:17:05;102077.78;;;3.82;98.99
85082;BME280;75424;50.762;7.178;2024-01-30T03:19:30;102077.78;;;3.77;98.82
85082;BME280;75424;50.762;7.178;2024-01-30T03:21:55;102077.72;;;3.70;98.41
85082;BME280;75424;50.762;7.178;2024-01-30T03:24:21;102077.69;;;3.62;98.87
85082;BME280;75424;50.762;7.178;2024-01-30T03:26:46;102081.16;;;3.58;98.98
85082;BME280;75424;50.762;7.178;2024-01-30T03:29:11;102071.47;;;3.51;98.18
85082;BME280;75424;50.762;7.178;2024-01-30T03:31:36;102074.94;;;3.47;98.92
85082;BME280;75424;50.762;7.178;2024-01-30T03:34:02;102078.34;;;3.39;98.08
85082;BME280;75424;50.762;7.178;2024-01-30T03:36:28;102072.19;;;3.38;98.53
85082;BME280;75424;50.762;7.178;2024-01-30T03:38:53;102071.41;;;3.47;98.37
85082;BME280;75424;50.762;7.178;2024-01-30T03:41:18;102078.38;;;3.40;98.97
85082;BME280;75424;50.762;7.178;2024-01-30T03:43:44;102079.16;;;3.32;98.38
85082;BME280;75424;50.762;7.178;2024-01-30T03:46:11;102080.84;;;3.25;98.42
85082;BME280;75424;50.762;7.178;2024-01-30T03:48:37;102078.28;;;3.28;98.79
85082;BME280;75424;50.762;7.178;2024-01-30T03:51:03;102076.47;;;3.26;99.17
85082;BME280;75424;50.762;7.178;2024-01-30T03:53:28;102077.31;;;3.22;98.71
85082;BME280;75424;50.762;7.178;2024-01-30T03:55:53;102085.16;;;3.16;99.08
85082;BME280;75424;50.762;7.178;2024-01-30T03:58:19;102074.63;;;3.13;98.75
85082;BME280;75424;50.762;7.178;2024-01-30T04:00:44;102070.19;;;3.09;98.88
85082;BME280;75424;50.762;7.178;2024-01-30T04:03:09;102082.44;;;3.05;98.95
85082;BME280;75424;50.762;7.178;2024-01-30T04:05:35;102077.19;;;3.05;98.24
85082;BME280;75424;50.762;7.178;2024-01-30T04:08:00;102073.69;;;3.08;99.40
85082;BME280;75424;50.762;7.178;2024-01-30T04:10:26;102069.34;;;3.11;99.48
85082;BME280;75424;50.762;7.178;2024-01-30T04:12:51;102063.19;;;3.08;99.38
85082;BME280;75424;50.762;7.178;2024-01-30T04:15:17;102065.78;;;3.05;98.61
85082;BME280;75424;50.762;7.178;2024-01-30T04:17:43;102068.47;;;3.09;99.23
85082;BME280;75424;50.762;7.178;2024-01-30T04:20:16;102057.97;;;3.12;99.54
85082;BME280;75424;50.762;7.178;2024-01-30T04:22:45;102058.94;;;3.19;98.76
85082;BME280;75424;50.762;7.178;2024-01-30T04:25:14;102054.50;;;3.15;98.69
85082;BME280;75424;50.762;7.178;2024-01-30T04:27:39;102060.63;;;3.15;99.47
85082;BME280;75424;50.762;7.178;2024-01-30T04:30:05;102056.22;;;3.13;98.78
85082;BME280;75424;50.762;7.178;2024-01-30T04:32:32;102058.78;;;3.07;98.91
85082;BME280;75424;50.762;7.178;2024-01-30T04:34:57;102051.81;;;3.09;98.73
85082;BME280;75424;50.762;7.178;2024-01-30T04:37:23;102047.47;;;3.09;99.10
85082;BME280;75424;50.762;7.178;2024-01-30T04:39:48;102056.16;;;3.04;99.03
85082;BME280;75424;50.762;7.178;2024-01-30T04:42:13;102047.34;;;3.00;98.63
85082;BME280;75424;50.762;7.178;2024-01-30T04:44:39;102043.84;;;2.98;98.59
85082;BME280;75424;50.762;7.178;2024-01-30T04:47:04;102042.97;;;2.98;98.85
85082;BME280;75424;50.762;7.178;2024-01-30T04:49:31;102046.31;;;2.86;99.32
85082;BME280;75424;50.762;7.178;2024-01-30T04:51:56;102041.00;;;2.79;99.29
85082;BME280;75424;50.762;7.178;2024-01-30T04:54:22;102050.59;;;2.77;99.13
85082;BME280;75424;50.762;7.178;2024-01-30T04:56:47;102054.06;;;2.70;99.12
85082;BME280;75424;50.762;7.178;2024-01-30T05:04:18;102041.72;;;2.61;98.78
85082;BME280;75424;50.762;7.178;2024-01-30T05:06:43;102050.44;;;2.62;98.98
85082;BME280;75424;50.762;7.178;2024-01-30T05:09:08;102046.06;;;2.61;99.06
85082;BME280;75424;50.762;7.178;2024-01-30T05:11:38;102057.44;;;2.60;99.50
85082;BME280;75424;50.762;7.178;2024-01-30T05:14:04;102050.38;;;2.56;99.38
85082;BME280;75424;50.762;7.178;2024-01-30T05:16:31;102055.66;;;2.57;99.60
85082;BME280;75424;50.762;7.178;2024-01-30T05:18:56;102060.03;;;2.58;99.18
85082;BME280;75424;50.762;7.178;2024-01-30T05:21:21;102062.59;;;2.54;99.36
85082;BME280;75424;50.762;7.178;2024-01-30T05:23:47;102069.66;;;2.59;99.62
85082;BME280;75424;50.762;7.178;2024-01-30T05:26:12;102071.38;;;2.56;99.07
85082;BME280;75424;50.762;7.178;2024-01-30T05:28:37;102068.72;;;2.53;99.51
85082;BME280;75424;50.762;7.178;2024-01-30T05:31:03;102067.84;;;2.54;98.99
85082;BME280;75424;50.762;7.178;2024-01-30T05:33:28;102061.63;;;2.46;99.05
85082;BME280;75424;50.762;7.178;2024-01-30T05:35:53;102057.19;;;2.40;99.42
85082;BME280;75424;50.762;7.178;2024-01-30T05:38:21;102064.97;;;2.33;98.95
85082;BME280;75424;50.762;7.178;2024-01-30T05:40:47;102064.13;;;2.35;99.32
85082;BME280;75424;50.762;7.178;2024-01-30T05:43:12;102066.78;;;2.37;99.13
85082;BME280;75424;50.762;7.178;2024-01-30T05:45:38;102067.66;;;2.36;99.99
85082;BME280;75424;50.762;7.178;2024-01-30T05:48:04;102073.84;;;2.44;99.33
85082;BME280;75424;50.762;7.178;2024-01-30T05:50:29;102063.47;;;2.54;100.00
85082;BME280;75424;50.762;7.178;2024-01-30T05:52:55;102056.56;;;2.62;99.71
85082;BME280;75424;50.762;7.178;2024-01-30T05:55:20;102053.13;;;2.66;99.72
85082;BME280;75424;50.762;7.178;2024-01-30T05:57:45;102047.09;;;2.73;99.52
85082;BME280;75424;50.762;7.178;2024-01-30T06:00:11;102042.78;;;2.80;99.56
85082;BME280;75424;50.762;7.178;2024-01-30T06:02:37;102045.41;;;2.80;99.99
85082;BME280;75424;50.762;7.178;2024-01-30T06:05:02;102042.00;;;2.88;100.00
85082;BME280;75424;50.762;7.178;2024-01-30T06:07:27;102041.94;;;2.85;99.77
85082;BME280;75424;50.762;7.178;2024-01-30T06:09:53;102040.25;;;2.87;100.00
85082;BME280;75424;50.762;7.178;2024-01-30T06:12:18;102038.50;;;2.91;100.00
85082;BME280;75424;50.762;7.178;2024-01-30T06:14:43;102034.16;;;2.91;99.69
85082;BME280;75424;50.762;7.178;2024-01-30T06:17:09;102036.69;;;2.85;99.06
85082;BME280;75424;50.762;7.178;2024-01-30T06:19:34;102040.19;;;2.83;100.00
85082;BME280;75424;50.762;7.178;2024-01-30T06:22:00;102045.50;;;2.87;100.00
85082;BME280;75424;50.762;7.178;2024-01-30T06:24:25;102046.31;;;2.83;99.25
85082;BME280;75424;50.762;7.178;2024-01-30T06:26:51;102047.97;;;2.77;98.79
85082;BME280;75424;50.762;7.178;2024-01-30T06:29:16;102054.13;;;2.79;99.91
85082;BME280;75424;50.762;7.178;2024-01-30T06:31:42;102041.00;;;2.79;99.51
85082;BME280;75424;50.762;7.178;2024-01-30T06:34:11;102046.25;;;2.79;99.50
85082;BME280;75424;50.762;7.178;2024-01-30T06:36:37;102054.13;;;2.77;99.65
85082;BME280;75424;50.762;7.178;2024-01-30T06:39:03;102050.66;;;2.80;99.45
85082;BME280;75424;50.762;7.178;2024-01-30T06:41:28;102049.84;;;2.87;99.72
85082;BME280;75424;50.762;7.178;2024-01-30T06:43:54;102055.16;;;2.93;100.00
85082;BME280;75424;50.762;7.178;2024-01-30T06:46:19;102051.72;;;2.98;100.00
85082;BME280;75424;50.762;7.178;2024-01-30T06:48:44;102049.09;;;2.98;100.00
85082;BME280;75424;50.762;7.178;2024-01-30T06:51:11;102041.22;;;3.01;99.77
85082;BME280;75424;50.762;7.178;2024-01-30T06:53:37;102046.50;;;3.03;100.00
85082;BME280;75424;50.762;7.178;2024-01-30T06:56:03;102043.06;;;3.08;100.00
85082;BME280;75424;50.762;7.178;2024-01-30T06:58:28;102049.25;;;3.13;100.00
85082;BME280;75424;50.762;7.178;2024-01-30T07:00:54;102049.25;;;3.16;99.86
85082;BME280;75424;50.762;7.178;2024-01-30T07:03:20;102040.59;;;3.28;99.76
85082;BME280;75424;50.762;7.178;2024-01-30T07:05:45;102040.66;;;3.35;100.00
85082;BME280;75424;50.762;7.178;2024-01-30T07:08:10;102036.38;;;3.48;100.00
85082;BME280;75424;50.762;7.178;2024-01-30T07:10:36;102046.13;;;3.61;100.00
85082;BME280;75424;50.762;7.178;2024-01-30T07:13:01;102048.00;;;3.80;100.00
85082;BME280;75424;50.762;7.178;2024-01-30T07:15:27;102035.72;;;3.82;100.00
85082;BME280;75424;50.762;7.178;2024-01-30T07:17:53;102044.50;;;3.81;100.00
85082;BME280;75424;50.762;7.178;2024-01-30T07:20:18;102047.09;;;3.76;99.30
85082;BME280;75424;50.762;7.178;2024-01-30T07:22:45;102035.69;;;3.71;99.53
85082;BME280;75424;50.762;7.178;2024-01-30T07:25:11;102033.03;;;3.68;100.00
85082;BME280;75424;50.762;7.178;2024-01-30T07:27:36;102033.91;;;3.69;100.00
85082;BME280;75424;50.762;7.178;2024-01-30T07:30:01;102035.66;;;3.70;100.00
85082;BME280;75424;50.762;7.178;2024-01-30T07:32:27;102039.22;;;3.78;100.00
85082;BME280;75424;50.762;7.178;2024-01-30T07:34:52;102047.09;;;3.78;99.76
85082;BME280;75424;50.762;7.178;2024-01-30T07:37:18;102039.28;;;3.84;99.64
85082;BME280;75424;50.762;7.178;2024-01-30T07:39:43;102039.31;;;3.94;99.96
85082;BME280;75424;50.762;7.178;2024-01-30T07:42:09;102042.00;;;4.07;100.00
85082;BME280;75424;50.762;7.178;2024-01-30T07:44:34;102038.56;;;4.17;100.00
85082;BME280;75424;50.762;7.178;2024-01-30T07:46:59;102045.66;;;4.33;100.00
85082;BME280;75424;50.762;7.178;2024-01-30T07:49:25;102045.72;;;4.43;100.00
85082;BME280;75424;50.762;7.178;2024-01-30T07:51:50;102053.63;;;4.51;99.77
85082;BME280;75424;50.762;7.178;2024-01-30T07:54:15;102058.03;;;4.56;100.00
85082;BME280;75424;50.762;7.178;2024-01-30T07:56:41;102065.06;;;4.62;99.64
85082;BME280;75424;50.762;7.178;2024-01-30T07:59:10;102069.47;;;4.69;99.79
85082;BME280;75424;50.762;7.178;2024-01-30T08:01:35;102070.41;;;4.81;99.29
85082;BME280;75424;50.762;7.178;2024-01-30T08:04:00;102067.75;;;4.87;99.17
85082;BME280;75424;50.762;7.178;2024-01-30T08:06:26;102078.31;;;4.93;99.04
85082;BME280;75424;50.762;7.178;2024-01-30T08:08:51;102081.84;;;5.09;99.24
85082;BME280;75424;50.762;7.178;2024-01-30T08:11:20;102077.47;;;5.23;98.40
85082;BME280;75424;50.762;7.178;2024-01-30T08:13:45;102073.09;;;5.29;98.78
85082;BME280;75424;50.762;7.178;2024-01-30T08:16:11;102080.16;;;5.42;98.36
85082;BME280;75424;50.762;7.178;2024-01-30T08:18:36;102080.13;;;5.48;98.09
85082;BME280;75424;50.762;7.178;2024-01-30T08:21:01;102087.19;;;5.51;98.34
85082;BME280;75424;50.762;7.178;2024-01-30T08:23:26;102084.53;;;5.54;98.07
85082;BME280;75424;50.762;7.178;2024-01-30T08:25:52;102081.91;;;5.58;97.82
85082;BME280;75424;50.762;7.178;2024-01-30T08:28:17;102081.91;;;5.66;97.63
85082;BME280;75424;50.762;7.178;2024-01-30T08:30:43;102069.59;;;5.77;96.59
85082;BME280;75424;50.762;7.178;2024-01-30T08:33:08;102069.59;;;5.83;96.26
85082;BME280;75424;50.762;7.178;2024-01-30T08:35:33;102057.28;;;5.88;96.33
85082;BME280;75424;50.762;7.178;2024-01-30T08:37:59;102066.94;;;5.95;96.23
85082;BME280;75424;50.762;7.178;2024-01-30T08:40:25;102064.31;;;5.92;95.86
85082;BME280;75424;50.762;7.178;2024-01-30T08:42:50;102057.28;;;5.94;95.86
85082;BME280;75424;50.762;7.178;2024-01-30T08:45:15;102056.38;;;5.95;95.94
85082;BME280;75424;50.762;7.178;2024-01-30T08:47:41;102052.84;;;5.97;96.06
85082;BME280;75424;50.762;7.178;2024-01-30T08:50:07;102052.00;;;6.00;96.06
85082;BME280;75424;50.762;7.178;2024-01-30T08:52:32;102048.47;;;6.04;95.49
85082;BME280;75424;50.762;7.178;2024-01-30T08:54:59;102056.34;;;6.08;94.59
85082;BME280;75424;50.762;7.178;2024-01-30T08:57:24;102060.72;;;6.17;94.71
85082;BME280;75424;50.762;7.178;2024-01-30T08:59:53;102060.72;;;6.20;94.67
85082;BME280;75424;50.762;7.178;2024-01-30T09:02:19;102066.88;;;6.22;94.57
85082;BME280;75424;50.762;7.178;2024-01-30T09:04:44;102076.56;;;6.24;94.17
85082;BME280;75424;50.762;7.178;2024-01-30T09:07:09;102076.53;;;6.30;94.14
85082;BME280;75424;50.762;7.178;2024-01-30T09:09:37;102073.81;;;6.44;93.32
85082;BME280;75424;50.762;7.178;2024-01-30T09:12:02;102080.00;;;6.49;93.65
85082;BME280;75424;50.762;7.178;2024-01-30T09:14:32;102085.22;;;6.53;92.79
85082;BME280;75424;50.762;7.178;2024-01-30T09:16:57;102084.34;;;6.57;93.06
85082;BME280;75424;50.762;7.178;2024-01-30T09:19:23;102088.75;;;6.60;92.96
85082;BME280;75424;50.762;7.178;2024-01-30T09:21:48;102098.41;;;6.61;93.26
85082;BME280;75424;50.762;7.178;2024-01-30T09:24:13;102094.00;;;6.61;93.48
85082;BME280;75424;50.762;7.178;2024-01-30T09:26:38;102099.28;;;6.66;93.62
85082;BME280;75424;50.762;7.178;2024-01-30T09:29:04;102090.44;;;6.77;92.97
85082;BME280;75424;50.762;7.178;2024-01-30T09:31:29;102094.75;;;6.86;92.07
85082;BME280;75424;50.762;7.178;2024-01-30T09:33:54;102088.56;;;6.96;92.29
85082;BME280;75424;50.762;7.178;2024-01-30T09:36:20;102104.38;;;7.05;92.29
85082;BME280;75424;50.762;7.178;2024-01-30T09:38:46;102106.94;;;7.14;91.94
85082;BME280;75424;50.762;7.178;2024-01-30T09:41:11;102096.22;;;7.35;91.78
85082;BME280;75424;50.762;7.178;2024-01-30T09:43:38;102105.72;;;7.60;90.68
85082;BME280;75424;50.762;7.178;2024-01-30T09:46:10;102103.69;;;7.92;90.21
85082;BME280;75424;50.762;7.178;2024-01-30T09:48:37;102099.88;;;8.23;88.66
85082;BME280;75424;50.762;7.178;2024-01-30T09:51:03;102109.09;;;8.65;86.62
85082;BME280;75424;50.762;7.178;2024-01-30T09:53:28;102092.81;;;8.93;85.20
85082;BME280;75424;50.762;7.178;2024-01-30T09:55:53;102100.44;;;9.17;84.46
85082;BME280;75424;50.762;7.178;2024-01-30T09:58:19;102100.97;;;9.39;83.32
85082;BME280;75424;50.762;7.178;2024-01-30T10:00:44;102098.16;;;9.49;82.56
85082;BME280;75424;50.762;7.178;2024-01-30T10:03:10;102096.31;;;9.56;82.37
85082;BME280;75424;50.762;7.178;2024-01-30T10:05:36;102098.88;;;9.60;82.36
85082;BME280;75424;50.762;7.178;2024-01-30T10:08:06;102103.16;;;9.69;81.23
85082;BME280;75424;50.762;7.178;2024-01-30T10:10:33;102106.53;;;9.78;81.27
85082;BME280;75424;50.762;7.178;2024-01-30T10:12:58;102096.66;;;9.86;81.65
85082;BME280;75424;50.762;7.178;2024-01-30T10:15:24;102102.53;;;10.05;80.75
85082;BME280;75424;50.762;7.178;2024-01-30T10:17:50;102108.34;;;10.26;80.06
85082;BME280;75424;50.762;7.178;2024-01-30T10:20:16;102101.84;;;10.41;77.98
85082;BME280;75424;50.762;7.178;2024-01-30T10:22:42;102100.72;;;10.54;78.27
85082;BME280;75424;50.762;7.178;2024-01-30T10:25:09;102106.78;;;10.60;78.96
85082;BME280;75424;50.762;7.178;2024-01-30T10:27:35;102107.53;;;10.67;78.21
85082;BME280;75424;50.762;7.178;2024-01-30T10:30:00;102109.22;;;10.71;78.03
85082;BME280;75424;50.762;7.178;2024-01-30T10:32:27;102102.75;;;10.84;77.28
85082;BME280;75424;50.762;7.178;2024-01-30T10:34:52;102108.06;;;10.84;77.21
85082;BME280;75424;50.762;7.178;2024-01-30T10:37:18;102101.19;;;10.74;78.74
85082;BME280;75424;50.762;7.178;2024-01-30T10:39:45;102110.13;;;10.70;78.43
85082;BME280;75424;50.762;7.178;2024-01-30T10:42:15;102108.19;;;10.78;78.22
85082;BME280;75424;50.762;7.178;2024-01-30T10:47:29;102110.06;;;10.74;78.26
85082;BME280;75424;50.762;7.178;2024-01-30T10:49:56;102099.31;;;10.77;77.41
85082;BME280;75424;50.762;7.178;2024-01-30T10:52:23;102099.28;;;10.79;78.05
85082;BME280;75424;50.762;7.178;2024-01-30T10:54:54;102100.22;;;10.78;76.98
85082;BME280;75424;50.762;7.178;2024-01-30T10:57:23;102104.63;;;10.79;78.06
85082;BME280;75424;50.762;7.178;2024-01-30T10:59:49;102102.81;;;10.81;76.92
85082;BME280;75424;50.762;7.178;2024-01-30T11:02:15;102097.56;;;10.78;76.87
85082;BME280;75424;50.762;7.178;2024-01-30T11:04:41;102097.56;;;10.78;76.93
85082;BME280;75424;50.762;7.178;2024-01-30T11:07:23;102088.63;;;10.80;77.05
85082;BME280;75424;50.762;7.178;2024-01-30T11:10:07;102078.91;;;10.79;76.78
85082;BME280;75424;50.762;7.178;2024-01-30T11:12:39;102074.38;;;10.83;76.47
85082;BME280;75424;50.762;7.178;2024-01-30T11:15:10;102078.75;;;10.85;75.79
85082;BME280;75424;50.762;7.178;2024-01-30T11:20:16;102074.31;;;10.86;75.90
85082;BME280;75424;50.762;7.178;2024-01-30T11:22:45;102078.84;;;10.82;76.60
85082;BME280;75424;50.762;7.178;2024-01-30T11:25:12;102075.91;;;10.94;76.27
85082;BME280;75424;50.762;7.178;2024-01-30T11:27:39;102065.22;;;10.97;75.71
85082;BME280;75424;50.762;7.178;2024-01-30T11:30:06;102071.28;;;11.02;75.52
85082;BME280;75424;50.762;7.178;2024-01-30T11:32:33;102073.06;;;11.02;75.41
85082;BME280;75424;50.762;7.178;2024-01-30T11:34:58;102065.09;;;11.02;75.73
85082;BME280;75424;50.762;7.178;2024-01-30T11:37:25;102066.00;;;11.01;76.20
85082;BME280;75424;50.762;7.178;2024-01-30T11:39:53;102061.56;;;11.01;75.03
85082;BME280;75424;50.762;7.178;2024-01-30T11:42:19;102054.34;;;11.06;75.49
85082;BME280;75424;50.762;7.178;2024-01-30T11:44:48;102056.03;;;11.10;74.53
85082;BME280;75424;50.762;7.178;2024-01-30T11:47:14;102057.75;;;11.13;75.37
85082;BME280;75424;50.762;7.178;2024-01-30T11:49:40;102051.56;;;11.12;74.63
85082;BME280;75424;50.762;7.178;2024-01-30T11:52:05;102056.66;;;11.21;74.79
85082;BME280;75424;50.762;7.178;2024-01-30T11:54:31;102056.56;;;11.26;74.09
85082;BME280;75424;50.762;7.178;2024-01-30T11:56:56;102059.09;;;11.30;73.27
85082;BME280;75424;50.762;7.178;2024-01-30T11:59:22;102055.41;;;11.36;72.92
85082;BME280;75424;50.762;7.178;2024-01-30T12:01:47;102053.53;;;11.41;72.99
85082;BME280;75424;50.762;7.178;2024-01-30T12:04:13;102051.66;;;11.45;74.79
85082;BME280;75424;50.762;7.178;2024-01-30T12:06:38;102053.41;;;11.46;73.13
85082;BME280;75424;50.762;7.178;2024-01-30T12:09:04;102052.41;;;11.50;73.60
85082;BME280;75424;50.762;7.178;2024-01-30T12:11:30;102052.28;;;11.56;73.11
85082;BME280;75424;50.762;7.178;2024-01-30T12:13:56;102041.66;;;11.54;74.01
85082;BME280;75424;50.762;7.178;2024-01-30T12:16:21;102051.28;;;11.61;73.94
85082;BME280;75424;50.762;7.178;2024-01-30T12:18:47;102048.38;;;11.70;73.00
85082;BME280;75424;50.762;7.178;2024-01-30T12:21:16;102040.25;;;11.75;73.02
85082;BME280;75424;50.762;7.178;2024-01-30T12:23:41;102044.66;;;11.76;73.05
85082;BME280;75424;50.762;7.178;2024-01-30T12:26:06;102034.91;;;11.76;73.36
85082;BME280;75424;50.762;7.178;2024-01-30T12:28:33;102042.75;;;11.82;72.48
85082;BME280;75424;50.762;7.178;2024-01-30T12:31:02;102039.88;;;11.90;72.62
85082;BME280;75424;50.762;7.178;2024-01-30T12:33:28;102041.56;;;11.92;71.24
85082;BME280;75424;50.762;7.178;2024-01-30T12:35:54;102041.63;;;11.89;72.04
85082;BME280;75424;50.762;7.178;2024-01-30T12:38:20;102039.06;;;11.88;72.52
85082;BME280;75424;50.762;7.178;2024-01-30T12:40:45;102044.31;;;11.89;71.52
85082;BME280;75424;50.762;7.178;2024-01-30T12:43:13;102051.41;;;11.90;71.83
85082;BME280;75424;50.762;7.178;2024-01-30T12:45:39;102054.16;;;11.87;72.07
85082;BME280;75424;50.762;7.178;2024-01-30T12:48:04;102067.50;;;11.86;71.59
85082;BME280;75424;50.762;7.178;2024-01-30T12:50:30;102063.09;;;11.85;72.21
85082;BME280;75424;50.762;7.178;2024-01-30T12:52:55;102059.59;;;11.83;72.17
85082;BME280;75424;50.762;7.178;2024-01-30T12:55:21;102058.72;;;11.82;71.51
85082;BME280;75424;50.762;7.178;2024-01-30T12:57:46;102062.25;;;11.83;71.88
85082;BME280;75424;50.762;7.178;2024-01-30T13:00:12;102061.25;;;11.87;71.89